createdAt,value
2022-12-12T00:00:59.985Z,0.77
2022-12-12T00:06:26.650Z,0.62
2022-12-12T00:11:48.380Z,0.39
2022-12-12T00:17:10.136Z,0.47
2022-12-12T00:22:32.602Z,0.25
2022-12-12T00:27:54.340Z,0.50
2022-12-12T00:33:16.675Z,0.59
2022-12-12T00:38:38.516Z,0.33
2022-12-12T00:44:00.760Z,0.38
2022-12-12T00:49:22.492Z,0.23
2022-12-12T00:54:44.258Z,0.05
2022-12-12T01:00:07.730Z,-0.01
2022-12-12T01:05:29.548Z,-0.06
2022-12-12T01:10:51.571Z,0.03
2022-12-12T01:16:13.991Z,-0.03
2022-12-12T01:21:36.794Z,-0.13
2022-12-12T01:26:58.638Z,-0.02
2022-12-12T01:32:20.383Z,0.04
2022-12-12T01:37:42.609Z,-0.14
2022-12-12T01:43:11.383Z,0.09
2022-12-12T01:48:36.923Z,0.26
2022-12-12T01:54:07.192Z,-0.12
2022-12-12T01:59:29.497Z,-0.08
2022-12-12T02:04:51.531Z,-0.30
2022-12-12T02:10:13.277Z,-0.37
2022-12-12T02:15:44.518Z,-0.56
2022-12-12T02:21:18.119Z,-0.76
2022-12-12T02:27:17.225Z,-0.70
2022-12-12T02:33:09.187Z,-0.73
2022-12-12T02:38:39.744Z,-0.89
2022-12-12T02:44:26.165Z,-1.11
2022-12-12T02:49:54.471Z,-0.92
2022-12-12T02:55:17.158Z,-0.98
2022-12-12T03:00:52.415Z,-1.11
2022-12-12T03:07:01.110Z,-1.09
2022-12-12T03:12:33.911Z,-1.08
2022-12-12T03:18:15.844Z,-1.12
2022-12-12T03:23:44.601Z,-1.24
2022-12-12T03:29:11.199Z,-1.32
2022-12-12T03:34:38.218Z,-1.36
2022-12-12T03:40:11.357Z,-1.41
2022-12-12T03:45:43.041Z,-1.43
2022-12-12T03:51:11.351Z,-1.43
2022-12-12T03:56:42.906Z,-1.53
2022-12-12T04:02:10.685Z,-1.56
2022-12-12T04:07:39.367Z,-1.73
2022-12-12T04:13:32.449Z,-1.58
2022-12-12T04:19:09.077Z,-1.67
2022-12-12T04:24:58.191Z,-1.66
2022-12-12T04:30:20.116Z,-1.57
2022-12-12T04:35:46.090Z,-1.47
2022-12-12T04:41:10.276Z,-1.46
2022-12-12T04:46:33.929Z,-0.93
2022-12-12T04:52:02.114Z,-0.79
2022-12-12T04:57:39.756Z,-0.66
2022-12-12T05:03:19.108Z,-0.51
2022-12-12T05:08:47.378Z,-0.36
2022-12-12T05:14:10.322Z,-0.43
2022-12-12T05:19:32.121Z,-0.46
2022-12-12T05:24:53.813Z,-0.29
2022-12-12T05:30:15.637Z,-0.35
2022-12-12T05:35:37.434Z,-0.43
2022-12-12T05:40:59.172Z,-0.34
2022-12-12T05:46:21.058Z,-0.35
2022-12-12T05:51:42.836Z,-0.28
2022-12-12T05:57:04.545Z,-0.27
2022-12-12T06:02:26.300Z,-0.27
2022-12-12T06:07:48.299Z,-0.45
2022-12-12T06:13:10.193Z,-0.75
2022-12-12T06:18:31.905Z,-0.89
2022-12-12T06:23:53.627Z,-0.49
2022-12-12T06:29:15.544Z,-0.56
2022-12-12T06:34:38.363Z,-0.96
2022-12-12T06:40:00.164Z,-0.96
2022-12-12T06:45:21.877Z,-0.52
2022-12-12T06:50:45.310Z,-0.58
2022-12-12T06:56:18.606Z,-0.84
2022-12-12T07:01:40.600Z,-0.85
2022-12-12T07:07:02.387Z,-0.61
2022-12-12T07:12:24.135Z,-0.84
2022-12-12T07:17:47.185Z,-0.50
2022-12-12T07:23:09.099Z,-0.15
2022-12-12T07:28:31.157Z,-0.18
2022-12-12T07:33:54.327Z,-0.26
2022-12-12T07:39:20.804Z,-0.28
2022-12-12T07:44:42.937Z,-0.29
2022-12-12T07:50:05.072Z,-0.23
2022-12-12T07:55:27.232Z,-0.48
2022-12-12T08:00:49.029Z,-0.46
2022-12-12T08:06:12.224Z,-0.58
2022-12-12T08:11:33.946Z,-0.55
2022-12-12T08:16:56.260Z,-0.54
2022-12-12T08:22:18.504Z,-0.24
2022-12-12T08:27:40.862Z,-0.41
2022-12-12T08:33:07.960Z,-0.20
2022-12-12T08:38:30.363Z,0.03
2022-12-12T08:43:52.046Z,0.05
2022-12-12T08:49:13.743Z,-0.33
2022-12-12T08:54:36.818Z,-0.30
2022-12-12T08:59:58.526Z,-0.02
2022-12-12T09:05:20.252Z,0.05
2022-12-12T09:10:42.909Z,0.09
2022-12-12T09:16:06.027Z,-0.26
2022-12-12T09:21:27.857Z,-0.32
2022-12-12T09:26:49.617Z,-0.19
2022-12-12T09:32:11.573Z,0.01
2022-12-12T09:37:33.663Z,0.18
2022-12-12T09:42:56.059Z,0.23
2022-12-12T09:48:35.459Z,0.31
2022-12-12T09:53:57.542Z,0.40
2022-12-12T09:59:27.591Z,0.44
2022-12-12T10:05:01.209Z,0.29
2022-12-12T10:10:27.579Z,0.49
2022-12-12T10:15:56.387Z,0.28
2022-12-12T10:21:24.351Z,0.28
2022-12-12T10:26:46.117Z,0.27
2022-12-12T10:32:30.048Z,0.41
2022-12-12T10:38:16.120Z,0.76
2022-12-12T10:43:47.380Z,0.83
2022-12-12T10:49:22.959Z,0.48
2022-12-12T10:55:00.834Z,0.54
2022-12-12T11:00:35.272Z,0.68
2022-12-12T11:05:57.851Z,0.71
2022-12-12T11:11:22.745Z,0.71
2022-12-12T11:16:47.520Z,0.74
2022-12-12T11:22:11.612Z,0.82
2022-12-12T11:27:37.870Z,0.86
2022-12-12T11:32:59.841Z,0.97
2022-12-12T11:38:26.997Z,0.92
2022-12-12T11:43:48.695Z,0.86
2022-12-12T11:49:19.130Z,0.67
2022-12-12T11:54:40.913Z,0.75
2022-12-12T12:00:11.422Z,0.93
2022-12-12T12:05:47.324Z,0.94
2022-12-12T12:11:15.170Z,1.04
2022-12-12T12:16:48.609Z,0.99
2022-12-12T12:22:16.075Z,1.18
2022-12-12T12:27:51.539Z,1.27
2022-12-12T12:33:31.518Z,1.31
2022-12-12T12:39:38.042Z,1.39
2022-12-12T12:45:20.939Z,1.43
2022-12-12T12:51:01.706Z,1.47
2022-12-12T12:56:27.582Z,1.51
2022-12-12T13:01:51.604Z,1.57
2022-12-12T13:07:40.924Z,1.44
2022-12-12T13:13:21.418Z,1.39
2022-12-12T13:18:46.669Z,1.29
2022-12-12T13:24:20.021Z,1.38
2022-12-12T13:30:05.187Z,1.47
2022-12-12T13:35:41.763Z,1.32
2022-12-12T13:41:06.541Z,1.16
2022-12-12T13:46:35.055Z,1.20
2022-12-12T13:52:27.750Z,1.04
2022-12-12T13:58:02.752Z,1.16
2022-12-12T14:03:29.790Z,1.13
2022-12-12T14:08:51.962Z,1.11
2022-12-12T14:14:20.554Z,1.09
2022-12-12T14:19:42.399Z,1.02
2022-12-12T14:25:08.242Z,0.97
2022-12-12T14:30:45.423Z,0.90
2022-12-12T14:36:25.899Z,0.98
2022-12-12T14:41:48.220Z,0.98
2022-12-12T14:47:09.998Z,0.93
2022-12-12T14:52:31.731Z,0.82
2022-12-12T14:57:53.433Z,0.98
2022-12-12T15:03:15.976Z,0.86
2022-12-12T15:08:38.244Z,0.72
2022-12-12T15:14:01.609Z,0.79
2022-12-12T15:19:27.619Z,0.63
2022-12-12T15:24:49.947Z,0.77
2022-12-12T15:30:14.411Z,0.65
2022-12-12T15:35:36.305Z,0.62
2022-12-12T15:41:00.883Z,0.48
2022-12-12T15:46:22.823Z,0.47
2022-12-12T15:51:44.687Z,0.43
2022-12-12T15:57:06.450Z,0.40
2022-12-12T16:02:31.097Z,0.33
2022-12-12T16:07:52.906Z,0.25
2022-12-12T16:13:17.382Z,0.27
2022-12-12T16:18:40.568Z,0.24
2022-12-12T16:24:19.687Z,0.25
2022-12-12T16:29:41.457Z,0.31
2022-12-12T16:35:03.866Z,0.22
2022-12-12T16:40:25.598Z,0.17
2022-12-12T16:45:50.181Z,-0.13
2022-12-12T16:51:21.777Z,-0.35
2022-12-12T16:56:44.614Z,-0.23
2022-12-12T17:02:20.322Z,-0.25
2022-12-12T17:07:42.093Z,-0.09
2022-12-12T17:13:05.683Z,-0.18
2022-12-12T17:18:27.439Z,-0.17
2022-12-12T17:23:49.179Z,-0.13
2022-12-12T17:29:10.956Z,-0.16
2022-12-12T17:34:32.741Z,-0.15
2022-12-12T17:39:54.653Z,-0.18
2022-12-12T17:45:16.632Z,-0.43
2022-12-12T17:50:41.788Z,-0.35
2022-12-12T17:56:07.926Z,-0.59
2022-12-12T18:01:33.796Z,-0.52
2022-12-12T18:06:55.665Z,-0.66
2022-12-12T18:12:17.399Z,-0.49
2022-12-12T18:17:40.647Z,-0.45
2022-12-12T18:23:02.975Z,-0.42
2022-12-12T18:28:25.085Z,-0.41
2022-12-12T18:33:47.226Z,-0.39
2022-12-12T18:39:09.053Z,-0.37
2022-12-12T18:44:30.805Z,-0.34
2022-12-12T18:49:52.526Z,-0.38
2022-12-12T18:55:14.352Z,-0.54
2022-12-12T19:00:39.825Z,-0.55
2022-12-12T19:06:10.661Z,-0.68
2022-12-12T19:11:35.097Z,-0.34
2022-12-12T19:16:57.034Z,-0.57
2022-12-12T19:22:43.901Z,-0.66
2022-12-12T19:28:00.642Z,-0.77
2022-12-12T19:33:22.488Z,-0.65
2022-12-12T19:38:45.101Z,-0.75
2022-12-12T19:44:12.293Z,-0.70
2022-12-12T19:49:34.000Z,-0.74
2022-12-12T19:54:55.786Z,-0.78
2022-12-12T20:00:19.779Z,-0.94
2022-12-12T20:05:42.306Z,-0.90
2022-12-12T20:11:06.779Z,-0.78
2022-12-12T20:16:29.641Z,-0.75
2022-12-12T20:22:02.143Z,-0.85
2022-12-12T20:27:24.527Z,-0.98
2022-12-12T20:32:46.332Z,-1.12
2022-12-12T20:38:08.103Z,-1.01
2022-12-12T20:43:29.929Z,-1.08
2022-12-12T20:48:51.647Z,-1.15
2022-12-12T20:54:14.660Z,-1.15
2022-12-12T20:59:36.427Z,-1.40
2022-12-12T21:04:58.196Z,-1.16
2022-12-12T21:10:19.973Z,-1.45
2022-12-12T21:15:41.863Z,-1.45
2022-12-12T21:21:04.552Z,-1.41
2022-12-12T21:26:29.389Z,-1.39
2022-12-12T21:31:52.523Z,-1.55
2022-12-12T21:37:14.835Z,-1.58
2022-12-12T21:42:36.590Z,-1.88
2022-12-12T21:47:58.318Z,-1.74
2022-12-12T21:53:35.336Z,-1.89
2022-12-12T21:58:57.498Z,-1.85
2022-12-12T22:04:19.472Z,-1.72
2022-12-12T22:09:42.429Z,-1.76
2022-12-12T22:15:04.590Z,-1.72
2022-12-12T22:20:26.328Z,-1.85
2022-12-12T22:25:48.613Z,-1.81
2022-12-12T22:31:11.066Z,-2.04
2022-12-12T22:36:35.473Z,-1.93
2022-12-12T22:41:57.337Z,-1.82
2022-12-12T22:47:19.190Z,-2.16
2022-12-12T22:52:40.907Z,-2.04
2022-12-12T22:58:03.154Z,-2.07
2022-12-12T23:03:24.855Z,-2.01
2022-12-12T23:08:51.641Z,-2.03
2022-12-12T23:14:16.773Z,-2.37
2022-12-12T23:19:38.486Z,-2.26
2022-12-12T23:25:00.559Z,-2.37
2022-12-12T23:30:22.248Z,-2.25
2022-12-12T23:35:50.985Z,-2.40
2022-12-12T23:41:15.570Z,-2.35
2022-12-12T23:46:37.391Z,-2.38
2022-12-12T23:51:59.773Z,-2.47
2022-12-12T23:57:21.569Z,-2.65
